LTAU/ASR METAR and TAF weather

Enter ICAO airport designator
Station Type Date Time Source
LTAU METAR 2019/06/19 07:20 UTC NOAA

LTAU 190720Z 00000KT 9999 SCT040 22/13 Q1013 NOSIG


Station Type Date Time Source
LTAU Decoded METAR 2019/06/19 07:20 UTC NOAA

Kayseri / Erkilet, Turkey (LTAU) 38-47N 035-29E 1054M
Jun 19, 2019 - 03:20 AM EDT / 2019.06.19 0720 UTC
Wind: Calm:0
Visibility: greater than 7 mile(s):0
Sky conditions: partly cloudy
Temperature: 71 F (22 C)
Dew Point: 55 F (13 C)
Relative Humidity: 56%
Pressure (altimeter): 29.91 in. Hg (1013 hPa)
ob: LTAU 190720Z 00000KT 9999 SCT040 22/13 Q1013 NOSIG
cycle: 7

Station Type Date Time Source
LTAU TAF 2019/06/19 06:03 UTC NOAA

TAF LTAU 190440Z 1906/2006 VRB02KT 9999 SCT040 BKN090
BECMG 1907/1910 FEW030CB BKN035
TEMPO 1911/1915 30015G25KT -TSRA
TEMPO 1915/1919 20015G25KT -TSRA
BECMG 1919/1921 SCT040 BKN100
TEMPO 1920/1924 -SHRA BKN035 BKN090
TEMPO 2002/2006 -SHRA BKN035 BKN090

Example: see airport list